sensor_id;sensor_type;location;lat;lon;timestamp;P1;durP1;ratioP1;P2;durP2;ratioP2
56116;SDS011;41989;45.356;20.392;2023-02-22T00:01:01;52.75;;;30.88;;
56116;SDS011;41989;45.356;20.392;2023-02-22T00:03:32;50.08;;;30.48;;
56116;SDS011;41989;45.356;20.392;2023-02-22T00:05:59;56.70;;;31.55;;
56116;SDS011;41989;45.356;20.392;2023-02-22T00:08:30;52.85;;;30.65;;
56116;SDS011;41989;45.356;20.392;2023-02-22T00:10:56;50.15;;;29.50;;
56116;SDS011;41989;45.356;20.392;2023-02-22T00:13:23;56.35;;;30.98;;
56116;SDS011;41989;45.356;20.392;2023-02-22T00:15:49;53.22;;;30.67;;
56116;SDS011;41989;45.356;20.392;2023-02-22T00:18:16;54.75;;;30.02;;
56116;SDS011;41989;45.356;20.392;2023-02-22T00:20:42;52.28;;;30.52;;
56116;SDS011;41989;45.356;20.392;2023-02-22T00:23:14;58.35;;;32.08;;
56116;SDS011;41989;45.356;20.392;2023-02-22T00:25:43;50.20;;;29.27;;
56116;SDS011;41989;45.356;20.392;2023-02-22T00:28:09;51.17;;;30.73;;
56116;SDS011;41989;45.356;20.392;2023-02-22T00:30:35;50.97;;;27.90;;
56116;SDS011;41989;45.356;20.392;2023-02-22T00:33:07;48.65;;;28.92;;
56116;SDS011;41989;45.356;20.392;2023-02-22T00:35:34;47.60;;;28.23;;
56116;SDS011;41989;45.356;20.392;2023-02-22T00:38:00;51.92;;;29.23;;
56116;SDS011;41989;45.356;20.392;2023-02-22T00:40:29;47.17;;;28.67;;
56116;SDS011;41989;45.356;20.392;2023-02-22T00:42:56;51.47;;;29.77;;
56116;SDS011;41989;45.356;20.392;2023-02-22T00:45:23;45.92;;;27.63;;
56116;SDS011;41989;45.356;20.392;2023-02-22T00:47:50;44.72;;;26.63;;
56116;SDS011;41989;45.356;20.392;2023-02-22T00:50:18;40.20;;;24.75;;
56116;SDS011;41989;45.356;20.392;2023-02-22T00:52:44;38.42;;;23.35;;
56116;SDS011;41989;45.356;20.392;2023-02-22T00:55:14;41.75;;;23.85;;
56116;SDS011;41989;45.356;20.392;2023-02-22T00:57:41;43.22;;;24.95;;
56116;SDS011;41989;45.356;20.392;2023-02-22T01:00:08;37.33;;;23.83;;
56116;SDS011;41989;45.356;20.392;2023-02-22T01:02:40;42.45;;;26.45;;
56116;SDS011;41989;45.356;20.392;2023-02-22T01:05:07;42.72;;;26.33;;
56116;SDS011;41989;45.356;20.392;2023-02-22T01:07:34;42.53;;;24.98;;
56116;SDS011;41989;45.356;20.392;2023-02-22T01:10:01;43.15;;;25.38;;
56116;SDS011;41989;45.356;20.392;2023-02-22T01:12:27;37.80;;;24.35;;
56116;SDS011;41989;45.356;20.392;2023-02-22T01:14:54;44.45;;;24.85;;
56116;SDS011;41989;45.356;20.392;2023-02-22T01:17:23;41.20;;;23.38;;
56116;SDS011;41989;45.356;20.392;2023-02-22T01:19:50;38.08;;;23.75;;
56116;SDS011;41989;45.356;20.392;2023-02-22T01:22:16;42.33;;;23.98;;
56116;SDS011;41989;45.356;20.392;2023-02-22T01:24:42;36.97;;;23.70;;
56116;SDS011;41989;45.356;20.392;2023-02-22T01:27:09;39.63;;;24.40;;
56116;SDS011;41989;45.356;20.392;2023-02-22T01:29:35;39.47;;;22.88;;
56116;SDS011;41989;45.356;20.392;2023-02-22T01:32:01;39.60;;;23.70;;
56116;SDS011;41989;45.356;20.392;2023-02-22T01:34:27;46.03;;;24.10;;
56116;SDS011;41989;45.356;20.392;2023-02-22T01:36:54;42.75;;;25.98;;
56116;SDS011;41989;45.356;20.392;2023-02-22T01:39:20;45.88;;;24.38;;
56116;SDS011;41989;45.356;20.392;2023-02-22T01:41:46;42.22;;;23.20;;
56116;SDS011;41989;45.356;20.392;2023-02-22T01:44:30;38.60;;;25.33;;
56116;SDS011;41989;45.356;20.392;2023-02-22T01:46:56;39.97;;;24.90;;
56116;SDS011;41989;45.356;20.392;2023-02-22T01:49:23;38.38;;;24.90;;
56116;SDS011;41989;45.356;20.392;2023-02-22T01:51:51;41.60;;;25.33;;
56116;SDS011;41989;45.356;20.392;2023-02-22T01:54:25;42.10;;;24.92;;
56116;SDS011;41989;45.356;20.392;2023-02-22T01:56:55;38.80;;;24.90;;
56116;SDS011;41989;45.356;20.392;2023-02-22T01:59:24;42.38;;;24.50;;
56116;SDS011;41989;45.356;20.392;2023-02-22T02:01:52;37.28;;;22.58;;
56116;SDS011;41989;45.356;20.392;2023-02-22T02:04:19;39.30;;;23.63;;
56116;SDS011;41989;45.356;20.392;2023-02-22T02:06:49;37.35;;;23.88;;
56116;SDS011;41989;45.356;20.392;2023-02-22T02:09:20;39.38;;;25.05;;
56116;SDS011;41989;45.356;20.392;2023-02-22T02:11:47;37.03;;;25.35;;
56116;SDS011;41989;45.356;20.392;2023-02-22T02:14:15;36.75;;;24.20;;
56116;SDS011;41989;45.356;20.392;2023-02-22T02:16:46;43.58;;;27.13;;
56116;SDS011;41989;45.356;20.392;2023-02-22T02:21:46;41.60;;;25.08;;
56116;SDS011;41989;45.356;20.392;2023-02-22T02:26:59;34.95;;;23.80;;
56116;SDS011;41989;45.356;20.392;2023-02-22T02:35:02;36.65;;;22.77;;
56116;SDS011;41989;45.356;20.392;2023-02-22T02:40:20;35.60;;;22.67;;
56116;SDS011;41989;45.356;20.392;2023-02-22T02:45:32;34.92;;;22.33;;
56116;SDS011;41989;45.356;20.392;2023-02-22T02:48:02;38.17;;;22.45;;
56116;SDS011;41989;45.356;20.392;2023-02-22T02:50:31;40.97;;;23.13;;
56116;SDS011;41989;45.356;20.392;2023-02-22T02:53:00;36.88;;;23.90;;
56116;SDS011;41989;45.356;20.392;2023-02-22T02:55:30;37.15;;;23.38;;
56116;SDS011;41989;45.356;20.392;2023-02-22T02:58:00;38.63;;;23.40;;
56116;SDS011;41989;45.356;20.392;2023-02-22T03:00:29;38.17;;;25.10;;
56116;SDS011;41989;45.356;20.392;2023-02-22T03:03:06;39.47;;;24.67;;
56116;SDS011;41989;45.356;20.392;2023-02-22T03:08:21;40.55;;;24.85;;
56116;SDS011;41989;45.356;20.392;2023-02-22T03:15:56;41.47;;;25.35;;
56116;SDS011;41989;45.356;20.392;2023-02-22T03:23:33;36.53;;;24.25;;
56116;SDS011;41989;45.356;20.392;2023-02-22T03:26:02;39.60;;;22.98;;
56116;SDS011;41989;45.356;20.392;2023-02-22T03:28:29;40.92;;;25.67;;
56116;SDS011;41989;45.356;20.392;2023-02-22T03:31:04;76.22;;;41.63;;
56116;SDS011;41989;45.356;20.392;2023-02-22T03:36:06;39.80;;;26.25;;
56116;SDS011;41989;45.356;20.392;2023-02-22T03:38:39;39.83;;;24.10;;
56116;SDS011;41989;45.356;20.392;2023-02-22T03:41:06;37.85;;;23.27;;
56116;SDS011;41989;45.356;20.392;2023-02-22T03:43:43;39.60;;;24.55;;
56116;SDS011;41989;45.356;20.392;2023-02-22T03:46:10;40.25;;;23.98;;
56116;SDS011;41989;45.356;20.392;2023-02-22T03:51:05;33.50;;;23.05;;
56116;SDS011;41989;45.356;20.392;2023-02-22T03:53:32;41.30;;;23.75;;
56116;SDS011;41989;45.356;20.392;2023-02-22T03:56:01;39.40;;;23.48;;
56116;SDS011;41989;45.356;20.392;2023-02-22T03:58:28;36.83;;;23.52;;
56116;SDS011;41989;45.356;20.392;2023-02-22T04:00:56;38.47;;;23.85;;
56116;SDS011;41989;45.356;20.392;2023-02-22T04:03:22;39.97;;;26.08;;
56116;SDS011;41989;45.356;20.392;2023-02-22T04:05:48;39.80;;;24.67;;
56116;SDS011;41989;45.356;20.392;2023-02-22T04:08:15;35.53;;;21.65;;
56116;SDS011;41989;45.356;20.392;2023-02-22T04:10:41;33.15;;;22.23;;
56116;SDS011;41989;45.356;20.392;2023-02-22T04:13:07;38.65;;;22.63;;
56116;SDS011;41989;45.356;20.392;2023-02-22T04:15:34;35.30;;;22.23;;
56116;SDS011;41989;45.356;20.392;2023-02-22T04:18:00;36.13;;;22.65;;
56116;SDS011;41989;45.356;20.392;2023-02-22T04:20:26;39.25;;;23.52;;
56116;SDS011;41989;45.356;20.392;2023-02-22T04:22:53;36.53;;;22.52;;
56116;SDS011;41989;45.356;20.392;2023-02-22T04:25:20;41.58;;;23.75;;
56116;SDS011;41989;45.356;20.392;2023-02-22T04:27:46;36.55;;;22.63;;
56116;SDS011;41989;45.356;20.392;2023-02-22T04:30:14;37.75;;;22.70;;
56116;SDS011;41989;45.356;20.392;2023-02-22T04:32:41;38.95;;;22.75;;
56116;SDS011;41989;45.356;20.392;2023-02-22T04:35:07;29.58;;;19.65;;
56116;SDS011;41989;45.356;20.392;2023-02-22T04:37:33;31.75;;;20.30;;
56116;SDS011;41989;45.356;20.392;2023-02-22T04:39:59;38.33;;;22.73;;
56116;SDS011;41989;45.356;20.392;2023-02-22T04:42:26;34.92;;;22.73;;
56116;SDS011;41989;45.356;20.392;2023-02-22T04:44:52;37.58;;;23.33;;
56116;SDS011;41989;45.356;20.392;2023-02-22T04:47:18;36.85;;;23.52;;
56116;SDS011;41989;45.356;20.392;2023-02-22T04:49:44;39.88;;;25.70;;
56116;SDS011;41989;45.356;20.392;2023-02-22T04:52:10;63.17;;;36.25;;
56116;SDS011;41989;45.356;20.392;2023-02-22T04:54:37;44.65;;;27.80;;
56116;SDS011;41989;45.356;20.392;2023-02-22T04:57:03;38.10;;;23.77;;
56116;SDS011;41989;45.356;20.392;2023-02-22T04:59:29;49.50;;;25.52;;
56116;SDS011;41989;45.356;20.392;2023-02-22T05:01:57;47.42;;;26.58;;
56116;SDS011;41989;45.356;20.392;2023-02-22T05:04:25;45.08;;;25.10;;
56116;SDS011;41989;45.356;20.392;2023-02-22T05:06:54;40.53;;;24.42;;
56116;SDS011;41989;45.356;20.392;2023-02-22T05:09:20;39.75;;;23.10;;
56116;SDS011;41989;45.356;20.392;2023-02-22T05:11:46;37.40;;;23.00;;
56116;SDS011;41989;45.356;20.392;2023-02-22T05:14:13;32.80;;;21.10;;
56116;SDS011;41989;45.356;20.392;2023-02-22T05:16:39;33.17;;;21.58;;
56116;SDS011;41989;45.356;20.392;2023-02-22T05:19:05;32.90;;;20.23;;
56116;SDS011;41989;45.356;20.392;2023-02-22T05:21:34;31.65;;;20.63;;
56116;SDS011;41989;45.356;20.392;2023-02-22T05:24:00;40.63;;;24.55;;
56116;SDS011;41989;45.356;20.392;2023-02-22T05:26:27;51.10;;;27.45;;
56116;SDS011;41989;45.356;20.392;2023-02-22T05:28:55;54.75;;;30.45;;
56116;SDS011;41989;45.356;20.392;2023-02-22T05:31:21;51.00;;;29.05;;
56116;SDS011;41989;45.356;20.392;2023-02-22T05:33:47;53.42;;;28.92;;
56116;SDS011;41989;45.356;20.392;2023-02-22T05:36:13;51.17;;;28.55;;
56116;SDS011;41989;45.356;20.392;2023-02-22T05:38:40;51.45;;;28.17;;
56116;SDS011;41989;45.356;20.392;2023-02-22T05:41:09;54.15;;;28.80;;
56116;SDS011;41989;45.356;20.392;2023-02-22T05:43:36;47.17;;;29.35;;
56116;SDS011;41989;45.356;20.392;2023-02-22T05:46:03;46.92;;;30.75;;
56116;SDS011;41989;45.356;20.392;2023-02-22T05:48:29;82.72;;;48.20;;
56116;SDS011;41989;45.356;20.392;2023-02-22T05:50:55;215.57;;;160.57;;
56116;SDS011;41989;45.356;20.392;2023-02-22T05:53:24;142.10;;;111.53;;
56116;SDS011;41989;45.356;20.392;2023-02-22T05:55:50;62.40;;;42.28;;
56116;SDS011;41989;45.356;20.392;2023-02-22T05:58:17;76.45;;;40.00;;
56116;SDS011;41989;45.356;20.392;2023-02-22T06:00:45;65.95;;;38.35;;
56116;SDS011;41989;45.356;20.392;2023-02-22T06:03:11;62.22;;;36.00;;
56116;SDS011;41989;45.356;20.392;2023-02-22T06:05:40;61.83;;;38.13;;
56116;SDS011;41989;45.356;20.392;2023-02-22T06:08:07;87.72;;;45.20;;
56116;SDS011;41989;45.356;20.392;2023-02-22T06:10:33;105.45;;;51.25;;
56116;SDS011;41989;45.356;20.392;2023-02-22T06:13:02;77.60;;;43.05;;
56116;SDS011;41989;45.356;20.392;2023-02-22T06:15:29;67.55;;;41.33;;
56116;SDS011;41989;45.356;20.392;2023-02-22T06:17:55;68.05;;;40.80;;
56116;SDS011;41989;45.356;20.392;2023-02-22T06:20:23;90.68;;;52.88;;
56116;SDS011;41989;45.356;20.392;2023-02-22T06:22:50;111.40;;;63.67;;
56116;SDS011;41989;45.356;20.392;2023-02-22T06:25:21;89.90;;;53.70;;
56116;SDS011;41989;45.356;20.392;2023-02-22T06:27:48;54.97;;;32.08;;
56116;SDS011;41989;45.356;20.392;2023-02-22T06:30:15;59.15;;;34.78;;
56116;SDS011;41989;45.356;20.392;2023-02-22T06:32:41;67.25;;;36.22;;
56116;SDS011;41989;45.356;20.392;2023-02-22T06:35:10;82.28;;;39.00;;
56116;SDS011;41989;45.356;20.392;2023-02-22T06:37:36;90.30;;;39.28;;
56116;SDS011;41989;45.356;20.392;2023-02-22T06:40:02;79.93;;;35.55;;
56116;SDS011;41989;45.356;20.392;2023-02-22T06:42:29;61.28;;;31.48;;
56116;SDS011;41989;45.356;20.392;2023-02-22T06:44:55;51.85;;;30.60;;
56116;SDS011;41989;45.356;20.392;2023-02-22T06:47:21;53.33;;;30.88;;
56116;SDS011;41989;45.356;20.392;2023-02-22T06:49:54;60.42;;;35.28;;
56116;SDS011;41989;45.356;20.392;2023-02-22T06:52:20;64.57;;;35.75;;
56116;SDS011;41989;45.356;20.392;2023-02-22T06:54:46;78.90;;;43.47;;
56116;SDS011;41989;45.356;20.392;2023-02-22T06:57:12;97.45;;;42.65;;
56116;SDS011;41989;45.356;20.392;2023-02-22T06:59:39;80.38;;;36.22;;
56116;SDS011;41989;45.356;20.392;2023-02-22T07:02:05;81.38;;;36.05;;
56116;SDS011;41989;45.356;20.392;2023-02-22T07:04:31;49.78;;;30.40;;
56116;SDS011;41989;45.356;20.392;2023-02-22T07:06:59;57.75;;;35.85;;
56116;SDS011;41989;45.356;20.392;2023-02-22T07:09:25;63.10;;;39.00;;
56116;SDS011;41989;45.356;20.392;2023-02-22T07:11:52;54.53;;;32.95;;
56116;SDS011;41989;45.356;20.392;2023-02-22T07:14:18;52.40;;;34.58;;
56116;SDS011;41989;45.356;20.392;2023-02-22T07:16:44;59.05;;;37.85;;
56116;SDS011;41989;45.356;20.392;2023-02-22T07:19:10;61.03;;;36.53;;
56116;SDS011;41989;45.356;20.392;2023-02-22T07:21:36;53.33;;;34.95;;
56116;SDS011;41989;45.356;20.392;2023-02-22T07:24:02;51.70;;;32.95;;
56116;SDS011;41989;45.356;20.392;2023-02-22T07:26:28;48.88;;;31.33;;
56116;SDS011;41989;45.356;20.392;2023-02-22T07:28:54;50.42;;;32.28;;
56116;SDS011;41989;45.356;20.392;2023-02-22T07:31:20;52.53;;;32.55;;
56116;SDS011;41989;45.356;20.392;2023-02-22T07:33:47;49.45;;;30.33;;
56116;SDS011;41989;45.356;20.392;2023-02-22T07:36:13;47.08;;;28.60;;
56116;SDS011;41989;45.356;20.392;2023-02-22T07:38:42;44.53;;;30.02;;
56116;SDS011;41989;45.356;20.392;2023-02-22T07:41:08;43.50;;;27.77;;
56116;SDS011;41989;45.356;20.392;2023-02-22T07:43:34;39.85;;;27.52;;
56116;SDS011;41989;45.356;20.392;2023-02-22T07:46:01;40.80;;;25.77;;
56116;SDS011;41989;45.356;20.392;2023-02-22T07:48:28;42.13;;;24.58;;
56116;SDS011;41989;45.356;20.392;2023-02-22T07:50:54;45.63;;;25.75;;
56116;SDS011;41989;45.356;20.392;2023-02-22T07:53:22;43.30;;;27.15;;
56116;SDS011;41989;45.356;20.392;2023-02-22T07:55:48;40.22;;;26.50;;
56116;SDS011;41989;45.356;20.392;2023-02-22T07:58:18;44.72;;;26.25;;
56116;SDS011;41989;45.356;20.392;2023-02-22T08:00:45;36.88;;;24.20;;
56116;SDS011;41989;45.356;20.392;2023-02-22T08:03:12;41.75;;;24.85;;
56116;SDS011;41989;45.356;20.392;2023-02-22T08:05:39;38.38;;;24.67;;
56116;SDS011;41989;45.356;20.392;2023-02-22T08:08:06;46.40;;;26.92;;
56116;SDS011;41989;45.356;20.392;2023-02-22T08:10:33;45.25;;;26.67;;
56116;SDS011;41989;45.356;20.392;2023-02-22T08:12:59;44.22;;;26.88;;
56116;SDS011;41989;45.356;20.392;2023-02-22T08:15:32;47.53;;;27.02;;
56116;SDS011;41989;45.356;20.392;2023-02-22T08:17:59;40.92;;;24.02;;
56116;SDS011;41989;45.356;20.392;2023-02-22T08:20:26;36.35;;;21.42;;
56116;SDS011;41989;45.356;20.392;2023-02-22T08:22:52;36.80;;;23.20;;
56116;SDS011;41989;45.356;20.392;2023-02-22T08:25:19;35.80;;;19.10;;
56116;SDS011;41989;45.356;20.392;2023-02-22T08:27:46;140.93;;;61.90;;
56116;SDS011;41989;45.356;20.392;2023-02-22T08:30:13;128.77;;;49.47;;
56116;SDS011;41989;45.356;20.392;2023-02-22T08:32:43;472.23;;;150.07;;
56116;SDS011;41989;45.356;20.392;2023-02-22T08:35:10;180.85;;;61.50;;
56116;SDS011;41989;45.356;20.392;2023-02-22T08:37:40;230.20;;;70.18;;
56116;SDS011;41989;45.356;20.392;2023-02-22T08:40:07;267.33;;;86.05;;
56116;SDS011;41989;45.356;20.392;2023-02-22T08:42:33;56.58;;;25.83;;
56116;SDS011;41989;45.356;20.392;2023-02-22T08:44:59;240.50;;;78.05;;
56116;SDS011;41989;45.356;20.392;2023-02-22T08:47:25;41.67;;;21.95;;
56116;SDS011;41989;45.356;20.392;2023-02-22T08:49:51;26.92;;;16.77;;
56116;SDS011;41989;45.356;20.392;2023-02-22T08:52:18;51.70;;;25.90;;
56116;SDS011;41989;45.356;20.392;2023-02-22T08:54:45;40.90;;;23.27;;
56116;SDS011;41989;45.356;20.392;2023-02-22T08:57:12;33.63;;;21.05;;
56116;SDS011;41989;45.356;20.392;2023-02-22T08:59:38;19.80;;;12.95;;
56116;SDS011;41989;45.356;20.392;2023-02-22T09:02:04;21.60;;;12.57;;
56116;SDS011;41989;45.356;20.392;2023-02-22T09:04:30;20.25;;;14.13;;
56116;SDS011;41989;45.356;20.392;2023-02-22T09:06:57;18.38;;;13.02;;
56116;SDS011;41989;45.356;20.392;2023-02-22T09:09:23;22.92;;;14.90;;
56116;SDS011;41989;45.356;20.392;2023-02-22T09:11:49;22.08;;;14.82;;
56116;SDS011;41989;45.356;20.392;2023-02-22T09:14:15;24.25;;;14.10;;
56116;SDS011;41989;45.356;20.392;2023-02-22T09:16:42;17.23;;;11.27;;
56116;SDS011;41989;45.356;20.392;2023-02-22T09:19:09;18.50;;;12.27;;
56116;SDS011;41989;45.356;20.392;2023-02-22T09:21:35;15.52;;;9.75;;
56116;SDS011;41989;45.356;20.392;2023-02-22T09:24:01;17.85;;;11.00;;
56116;SDS011;41989;45.356;20.392;2023-02-22T09:26:32;14.98;;;9.35;;
56116;SDS011;41989;45.356;20.392;2023-02-22T09:28:59;15.45;;;9.52;;
56116;SDS011;41989;45.356;20.392;2023-02-22T09:31:25;13.77;;;9.48;;
56116;SDS011;41989;45.356;20.392;2023-02-22T09:33:51;14.00;;;8.88;;
56116;SDS011;41989;45.356;20.392;2023-02-22T09:36:17;21.92;;;14.43;;
56116;SDS011;41989;45.356;20.392;2023-02-22T09:38:46;13.48;;;10.13;;
56116;SDS011;41989;45.356;20.392;2023-02-22T09:41:17;9.93;;;7.38;;
56116;SDS011;41989;45.356;20.392;2023-02-22T09:43:50;13.73;;;10.60;;
56116;SDS011;41989;45.356;20.392;2023-02-22T09:49:01;11.35;;;8.10;;
56116;SDS011;41989;45.356;20.392;2023-02-22T09:51:32;11.00;;;7.53;;
56116;SDS011;41989;45.356;20.392;2023-02-22T09:53:59;11.60;;;8.38;;
56116;SDS011;41989;45.356;20.392;2023-02-22T09:56:27;11.63;;;7.70;;
56116;SDS011;41989;45.356;20.392;2023-02-22T09:58:55;10.38;;;7.30;;
56116;SDS011;41989;45.356;20.392;2023-02-22T10:01:47;9.93;;;7.45;;
56116;SDS011;41989;45.356;20.392;2023-02-22T10:09:31;8.57;;;5.63;;
56116;SDS011;41989;45.356;20.392;2023-02-22T10:14:43;11.60;;;7.03;;
56116;SDS011;41989;45.356;20.392;2023-02-22T10:27:55;15.85;;;6.93;;
56116;SDS011;41989;45.356;20.392;2023-02-22T10:30:32;8.38;;;5.47;;
56116;SDS011;41989;45.356;20.392;2023-02-22T10:35:43;20.35;;;8.55;;
56116;SDS011;41989;45.356;20.392;2023-02-22T10:38:11;21.05;;;7.65;;
56116;SDS011;41989;45.356;20.392;2023-02-22T10:40:42;62.75;;;13.20;;
56116;SDS011;41989;45.356;20.392;2023-02-22T10:43:08;16.70;;;7.45;;
56116;SDS011;41989;45.356;20.392;2023-02-22T10:45:38;13.40;;;7.50;;
56116;SDS011;41989;45.356;20.392;2023-02-22T10:48:08;17.25;;;8.40;;
56116;SDS011;41989;45.356;20.392;2023-02-22T10:50:36;14.60;;;8.50;;
56116;SDS011;41989;45.356;20.392;2023-02-22T10:53:04;14.00;;;7.90;;
56116;SDS011;41989;45.356;20.392;2023-02-22T10:55:31;14.93;;;7.93;;
56116;SDS011;41989;45.356;20.392;2023-02-22T10:57:58;11.55;;;7.00;;
56116;SDS011;41989;45.356;20.392;2023-02-22T11:00:29;10.80;;;6.57;;
56116;SDS011;41989;45.356;20.392;2023-02-22T11:02:57;7.43;;;5.57;;
56116;SDS011;41989;45.356;20.392;2023-02-22T11:10:46;10.45;;;6.65;;
56116;SDS011;41989;45.356;20.392;2023-02-22T11:13:16;12.38;;;7.15;;
56116;SDS011;41989;45.356;20.392;2023-02-22T11:15:44;9.30;;;6.63;;
56116;SDS011;41989;45.356;20.392;2023-02-22T11:18:30;11.65;;;8.43;;
56116;SDS011;41989;45.356;20.392;2023-02-22T11:21:04;14.35;;;9.40;;
56116;SDS011;41989;45.356;20.392;2023-02-22T11:23:32;14.45;;;8.48;;
56116;SDS011;41989;45.356;20.392;2023-02-22T11:26:04;14.48;;;8.20;;
56116;SDS011;41989;45.356;20.392;2023-02-22T11:28:31;10.45;;;7.07;;
56116;SDS011;41989;45.356;20.392;2023-02-22T11:31:07;17.73;;;8.43;;
56116;SDS011;41989;45.356;20.392;2023-02-22T11:33:34;22.85;;;8.75;;
56116;SDS011;41989;45.356;20.392;2023-02-22T11:36:02;13.60;;;8.70;;
56116;SDS011;41989;45.356;20.392;2023-02-22T11:38:34;10.63;;;7.43;;
56116;SDS011;41989;45.356;20.392;2023-02-22T11:46:39;10.15;;;6.70;;
56116;SDS011;41989;45.356;20.392;2023-02-22T11:49:07;10.90;;;7.22;;
56116;SDS011;41989;45.356;20.392;2023-02-22T11:51:42;12.23;;;6.88;;
56116;SDS011;41989;45.356;20.392;2023-02-22T12:01:42;11.07;;;6.53;;
56116;SDS011;41989;45.356;20.392;2023-02-22T12:09:42;11.48;;;6.72;;
56116;SDS011;41989;45.356;20.392;2023-02-22T12:14:58;8.60;;;6.78;;
56116;SDS011;41989;45.356;20.392;2023-02-22T12:17:33;8.75;;;6.70;;
56116;SDS011;41989;45.356;20.392;2023-02-22T12:20:08;9.27;;;6.90;;
56116;SDS011;41989;45.356;20.392;2023-02-22T12:22:44;9.20;;;5.80;;
56116;SDS011;41989;45.356;20.392;2023-02-22T12:25:24;9.50;;;6.18;;
56116;SDS011;41989;45.356;20.392;2023-02-22T12:27:57;9.05;;;6.30;;
56116;SDS011;41989;45.356;20.392;2023-02-22T12:30:25;14.73;;;6.40;;
56116;SDS011;41989;45.356;20.392;2023-02-22T12:32:53;19.67;;;8.07;;
56116;SDS011;41989;45.356;20.392;2023-02-22T12:40:19;18.45;;;6.43;;
56116;SDS011;41989;45.356;20.392;2023-02-22T12:45:29;9.20;;;6.18;;
56116;SDS011;41989;45.356;20.392;2023-02-22T12:48:06;8.45;;;6.28;;
56116;SDS011;41989;45.356;20.392;2023-02-22T12:50:34;11.07;;;5.90;;
56116;SDS011;41989;45.356;20.392;2023-02-22T12:53:13;7.88;;;5.22;;
56116;SDS011;41989;45.356;20.392;2023-02-22T12:55:46;8.85;;;6.68;;
56116;SDS011;41989;45.356;20.392;2023-02-22T13:00:47;13.07;;;5.70;;
56116;SDS011;41989;45.356;20.392;2023-02-22T13:05:44;8.93;;;5.25;;
56116;SDS011;41989;45.356;20.392;2023-02-22T13:08:26;10.35;;;5.63;;
56116;SDS011;41989;45.356;20.392;2023-02-22T13:13:34;9.77;;;4.43;;
56116;SDS011;41989;45.356;20.392;2023-02-22T13:24:10;14.88;;;6.15;;
56116;SDS011;41989;45.356;20.392;2023-02-22T13:26:43;9.40;;;5.75;;
56116;SDS011;41989;45.356;20.392;2023-02-22T13:31:44;8.10;;;3.83;;
56116;SDS011;41989;45.356;20.392;2023-02-22T13:49:43;10.32;;;5.10;;
56116;SDS011;41989;45.356;20.392;2023-02-22T13:52:30;7.63;;;4.15;;
56116;SDS011;41989;45.356;20.392;2023-02-22T13:55:14;7.30;;;4.70;;
56116;SDS011;41989;45.356;20.392;2023-02-22T13:57:41;4.88;;;3.90;;
56116;SDS011;41989;45.356;20.392;2023-02-22T14:05:34;5.47;;;4.00;;
56116;SDS011;41989;45.356;20.392;2023-02-22T14:08:00;6.65;;;4.38;;
56116;SDS011;41989;45.356;20.392;2023-02-22T14:10:59;8.50;;;4.20;;
56116;SDS011;41989;45.356;20.392;2023-02-22T14:13:22;5.03;;;3.85;;
56116;SDS011;41989;45.356;20.392;2023-02-22T14:18:19;4.47;;;3.70;;
56116;SDS011;41989;45.356;20.392;2023-02-22T14:20:45;6.40;;;4.35;;
56116;SDS011;41989;45.356;20.392;2023-02-22T14:31:14;11.67;;;3.70;;
56116;SDS011;41989;45.356;20.392;2023-02-22T14:41:33;6.95;;;4.97;;
56116;SDS011;41989;45.356;20.392;2023-02-22T14:44:01;8.65;;;4.82;;
56116;SDS011;41989;45.356;20.392;2023-02-22T14:46:29;5.95;;;4.35;;
56116;SDS011;41989;45.356;20.392;2023-02-22T14:48:59;5.45;;;4.13;;
56116;SDS011;41989;45.356;20.392;2023-02-22T14:51:28;6.72;;;4.15;;
56116;SDS011;41989;45.356;20.392;2023-02-22T14:54:05;9.38;;;4.65;;
56116;SDS011;41989;45.356;20.392;2023-02-22T14:56:34;7.97;;;4.88;;
56116;SDS011;41989;45.356;20.392;2023-02-22T15:01:43;6.45;;;4.72;;
56116;SDS011;41989;45.356;20.392;2023-02-22T15:04:15;6.35;;;4.35;;
56116;SDS011;41989;45.356;20.392;2023-02-22T15:06:41;7.13;;;3.58;;
56116;SDS011;41989;45.356;20.392;2023-02-22T15:11:34;11.07;;;4.78;;
56116;SDS011;41989;45.356;20.392;2023-02-22T15:14:00;11.48;;;6.88;;
56116;SDS011;41989;45.356;20.392;2023-02-22T15:16:28;20.33;;;9.32;;
56116;SDS011;41989;45.356;20.392;2023-02-22T15:18:56;8.60;;;5.57;;
56116;SDS011;41989;45.356;20.392;2023-02-22T15:21:24;9.90;;;5.03;;
56116;SDS011;41989;45.356;20.392;2023-02-22T15:28:46;11.93;;;7.20;;
56116;SDS011;41989;45.356;20.392;2023-02-22T15:31:29;10.55;;;6.60;;
56116;SDS011;41989;45.356;20.392;2023-02-22T15:33:56;13.00;;;7.55;;
56116;SDS011;41989;45.356;20.392;2023-02-22T15:36:27;16.45;;;8.75;;
56116;SDS011;41989;45.356;20.392;2023-02-22T15:38:55;22.15;;;9.98;;
56116;SDS011;41989;45.356;20.392;2023-02-22T15:41:26;28.55;;;15.48;;
56116;SDS011;41989;45.356;20.392;2023-02-22T15:43:56;40.60;;;20.08;;
56116;SDS011;41989;45.356;20.392;2023-02-22T15:46:23;53.17;;;22.42;;
56116;SDS011;41989;45.356;20.392;2023-02-22T15:51:30;35.22;;;15.95;;
56116;SDS011;41989;45.356;20.392;2023-02-22T15:53:58;27.50;;;12.65;;
56116;SDS011;41989;45.356;20.392;2023-02-22T15:56:30;28.45;;;17.40;;
56116;SDS011;41989;45.356;20.392;2023-02-22T15:59:05;53.65;;;37.80;;
56116;SDS011;41989;45.356;20.392;2023-02-22T16:01:37;59.30;;;45.75;;
56116;SDS011;41989;45.356;20.392;2023-02-22T16:04:05;49.08;;;31.85;;
56116;SDS011;41989;45.356;20.392;2023-02-22T16:09:00;27.55;;;16.00;;
56116;SDS011;41989;45.356;20.392;2023-02-22T16:11:31;18.88;;;12.05;;
56116;SDS011;41989;45.356;20.392;2023-02-22T16:14:01;18.85;;;10.82;;
56116;SDS011;41989;45.356;20.392;2023-02-22T16:16:32;32.53;;;15.13;;
56116;SDS011;41989;45.356;20.392;2023-02-22T16:22:22;27.65;;;14.52;;
56116;SDS011;41989;45.356;20.392;2023-02-22T16:24:38;29.75;;;15.57;;
56116;SDS011;41989;45.356;20.392;2023-02-22T16:29:30;36.30;;;15.68;;
56116;SDS011;41989;45.356;20.392;2023-02-22T16:31:56;35.47;;;14.60;;
56116;SDS011;41989;45.356;20.392;2023-02-22T16:34:23;34.78;;;13.48;;
56116;SDS011;41989;45.356;20.392;2023-02-22T16:36:49;30.23;;;13.73;;
56116;SDS011;41989;45.356;20.392;2023-02-22T16:41:44;29.63;;;16.23;;
56116;SDS011;41989;45.356;20.392;2023-02-22T16:44:11;30.13;;;15.95;;
56116;SDS011;41989;45.356;20.392;2023-02-22T16:46:37;34.63;;;18.63;;
56116;SDS011;41989;45.356;20.392;2023-02-22T16:49:05;52.67;;;23.40;;
56116;SDS011;41989;45.356;20.392;2023-02-22T16:51:34;40.17;;;20.77;;
56116;SDS011;41989;45.356;20.392;2023-02-22T16:54:04;40.33;;;19.15;;
56116;SDS011;41989;45.356;20.392;2023-02-22T16:56:30;33.50;;;19.83;;
56116;SDS011;41989;45.356;20.392;2023-02-22T16:59:00;46.80;;;23.00;;
56116;SDS011;41989;45.356;20.392;2023-02-22T17:01:27;34.53;;;22.95;;
56116;SDS011;41989;45.356;20.392;2023-02-22T17:03:53;41.80;;;23.58;;
56116;SDS011;41989;45.356;20.392;2023-02-22T17:06:19;44.83;;;23.90;;
56116;SDS011;41989;45.356;20.392;2023-02-22T17:08:46;44.53;;;24.58;;
56116;SDS011;41989;45.356;20.392;2023-02-22T17:11:15;35.28;;;19.38;;
56116;SDS011;41989;45.356;20.392;2023-02-22T17:13:42;37.50;;;20.38;;